Time;durP1;ratioP1;P1;durP2;ratioP2;P2;SDS_P1;SDS_P2;PMS_P1;PMS_P2;Temp;Humidity;BMP_temperature;BMP_pressure;BME280_temperature;BME280_humidity;BME280_pressure;Samples;Min_cycle;Max_cycle;Signal;HPM_P1;HPM_P2
2021/11/29 00:00:31;;;;;;;8.82;2.75;;;;;;;7.43;48.01;100240.31;4395630;32;20074;-68
2021/11/29 00:03:02;;;;;;;9.18;2.72;;;;;;;7.36;48.06;100254.44;4399580;32;20058;-69
2021/11/29 00:05:29;;;;;;;10.40;2.70;;;;;;;7.45;47.80;100251.09;4398525;32;20320;-69
2021/11/29 00:07:57;;;;;;;6.35;2.45;;;;;;;7.37;47.86;100247.63;4396423;32;20064;-69
2021/11/29 00:10:24;;;;;;;10.60;2.70;;;;;;;7.20;48.13;100239.56;4397130;32;20161;-69
2021/11/29 00:12:50;;;;;;;10.55;2.17;;;;;;;7.36;48.15;100248.06;4397099;32;20110;-69
2021/11/29 00:15:15;;;;;;;8.75;2.40;;;;;;;7.26;48.05;100243.44;4398272;32;20073;-69
2021/11/29 00:17:42;;;;;;;6.00;2.33;;;;;;;7.18;48.23;100258.81;4394506;32;20062;-69
2021/11/29 00:20:09;;;;;;;10.75;2.87;;;;;;;7.29;47.89;100256.59;4398428;32;20138;-69
2021/11/29 00:22:36;;;;;;;11.93;3.83;;;;;;;7.42;47.72;100254.75;4398064;32;20096;-69
2021/11/29 00:25:03;;;;;;;8.00;3.55;;;;;;;7.14;48.50;100249.66;4398956;32;20065;-69
2021/11/29 00:27:30;;;;;;;7.70;3.50;;;;;;;7.31;48.20;100251.38;4394851;32;20078;-69
2021/11/29 00:29:56;;;;;;;8.57;3.55;;;;;;;7.33;48.18;100249.72;4396523;32;20085;-69
2021/11/29 00:32:22;;;;;;;6.85;3.72;;;;;;;7.49;47.85;100249.78;4397139;32;20120;-69
2021/11/29 00:34:48;;;;;;;10.73;4.00;;;;;;;7.52;47.49;100257.34;4397078;32;20424;-69
2021/11/29 00:37:13;;;;;;;10.90;3.75;;;;;;;7.47;47.46;100257.84;4397081;32;20451;-69
2021/11/29 00:39:39;;;;;;;14.48;4.25;;;;;;;7.34;47.70;100258.91;4395661;32;20933;-69
2021/11/29 00:42:05;;;;;;;6.55;3.28;;;;;;;7.27;47.89;100254.22;4398326;32;20030;-69
2021/11/29 00:44:31;;;;;;;5.85;2.83;;;;;;;7.18;47.81;100256.78;4398015;32;20061;-69
2021/11/29 00:46:56;;;;;;;4.70;1.92;;;;;;;7.22;47.75;100260.31;4397452;32;20066;-69
2021/11/29 00:49:22;;;;;;;8.70;3.25;;;;;;;7.14;48.10;100258.06;4397400;32;20039;-69
2021/11/29 00:51:48;;;;;;;7.55;2.78;;;;;;;7.22;47.92;100262.31;4400015;32;20042;-69
2021/11/29 00:54:14;;;;;;;9.20;3.15;;;;;;;7.21;48.06;100260.75;4399065;32;20076;-69
2021/11/29 00:56:40;;;;;;;8.48;2.85;;;;;;;7.20;48.00;100262.75;4396655;32;20043;-69
2021/11/29 00:59:06;;;;;;;5.65;2.25;;;;;;;7.14;48.16;100267.25;4397756;32;20377;-69
2021/11/29 01:01:32;;;;;;;12.32;3.53;;;;;;;7.15;48.10;100265.25;4397492;32;20066;-69
2021/11/29 01:03:57;;;;;;;9.18;2.37;;;;;;;7.09;47.90;100272.56;4397972;32;20132;-69
2021/11/29 01:06:24;;;;;;;8.27;2.33;;;;;;;7.08;47.71;100270.97;4398834;32;20057;-69
2021/11/29 01:08:51;;;;;;;7.43;2.30;;;;;;;7.08;47.84;100274.56;4395451;32;20073;-69
2021/11/29 01:11:16;;;;;;;6.15;2.10;;;;;;;7.06;47.81;100276.97;4395787;32;20034;-69
2021/11/29 01:13:43;;;;;;;8.93;2.22;;;;;;;7.07;47.94;100274.97;4397096;32;20109;-69
2021/11/29 01:16:09;;;;;;;13.50;2.33;;;;;;;7.11;48.08;100275.69;4396109;32;20047;-69
2021/11/29 01:18:35;;;;;;;6.90;2.20;;;;;;;7.00;48.29;100277.91;4394730;32;20054;-69
2021/11/29 01:21:01;;;;;;;7.43;2.55;;;;;;;6.97;48.01;100287.91;4398825;32;20368;-69
2021/11/29 01:23:26;;;;;;;6.10;2.40;;;;;;;6.99;48.10;100281.91;4398256;32;20034;-69
2021/11/29 01:25:54;;;;;;;7.35;2.65;;;;;;;6.98;48.04;100283.94;4396818;32;20074;-69
2021/11/29 01:28:22;;;;;;;8.90;2.75;;;;;;;6.98;48.00;100275.53;4394680;32;20415;-69
2021/11/29 01:30:49;;;;;;;7.87;2.72;;;;;;;7.09;48.17;100280.94;4393215;32;20076;-69
2021/11/29 01:33:15;;;;;;;8.82;2.72;;;;;;;6.95;48.14;100283.97;4399472;32;20087;-69
2021/11/29 01:35:41;;;;;;;7.43;2.28;;;;;;;6.65;48.52;100281.25;4396618;32;20074;-69
2021/11/29 01:38:08;;;;;;;5.72;2.15;;;;;;;7.09;48.04;100280.94;4396259;32;20119;-69
2021/11/29 01:40:36;;;;;;;6.15;2.45;;;;;;;7.10;47.92;100283.31;4395400;32;20030;-69
2021/11/29 01:45:47;;;;;;;5.07;1.77;;;;;;;7.74;47.20;100305.34;3977538;32;15075077;-68
2021/11/29 01:48:14;;;;;;;6.10;2.20;;;;;;;7.74;47.20;100305.34;4433609;32;20151;-69
2021/11/29 01:50:43;;;;;;;8.88;2.33;;;;;;;7.14;47.76;100292.44;4433489;32;20037;-69
2021/11/29 01:53:10;;;;;;;9.05;2.20;;;;;;;7.33;47.64;100296.53;4436556;32;20449;-69
2021/11/29 01:55:38;;;;;;;9.20;2.30;;;;;;;7.25;47.79;100289.47;4437493;32;20073;-69
2021/11/29 01:58:04;;;;;;;8.25;2.53;;;;;;;7.14;47.54;100294.44;4435939;32;20061;-69
2021/11/29 02:00:37;;;;;;;8.65;3.05;;;;;;;7.04;48.02;100293.41;4436850;32;20350;-69
2021/11/29 02:03:03;;;;;;;6.75;2.40;;;;;;;6.99;48.56;100298.69;4434720;32;20485;-68
2021/11/29 02:05:30;;;;;;;7.45;2.10;;;;;;;6.92;48.38;100298.81;4439682;32;20560;-68
2021/11/29 02:07:57;;;;;;;6.65;2.25;;;;;;;7.02;48.04;100306.22;4437089;32;20033;-69
2021/11/29 02:10:25;;;;;;;9.10;2.08;;;;;;;6.93;48.27;100306.00;4432063;32;20328;-69
2021/11/29 02:12:51;;;;;;;4.15;1.90;;;;;;;7.08;48.18;100302.53;4434111;32;20049;-69
2021/11/29 02:15:18;;;;;;;8.98;2.37;;;;;;;7.11;47.94;100310.09;4435715;32;20084;-69
2021/11/29 02:17:45;;;;;;;5.37;2.35;;;;;;;6.94;48.02;100315.97;4432494;32;20073;-69
2021/11/29 02:20:13;;;;;;;9.93;3.50;;;;;;;6.92;48.05;100302.41;4434067;32;20077;-69
2021/11/29 02:22:40;;;;;;;6.07;2.22;;;;;;;6.90;48.21;100301.25;4436882;32;20752;-69
2021/11/29 02:25:07;;;;;;;8.90;2.42;;;;;;;6.93;48.08;100306.78;4435518;32;20490;-69
2021/11/29 02:27:35;;;;;;;12.23;2.42;;;;;;;6.96;47.86;100316.34;4435434;32;20471;-69
2021/11/29 02:30:01;;;;;;;4.68;1.73;;;;;;;6.81;48.10;100312.19;4433852;32;20029;-69
2021/11/29 02:32:27;;;;;;;5.95;1.90;;;;;;;6.97;47.92;100317.91;4436970;32;20550;-68
2021/11/29 02:34:53;;;;;;;6.22;2.12;;;;;;;6.68;48.23;100325.16;4430165;32;20077;-68
2021/11/29 02:37:19;;;;;;;5.85;2.10;;;;;;;6.64;48.01;100319.63;4434383;32;20608;-69
2021/11/29 02:39:45;;;;;;;6.40;2.15;;;;;;;6.80;48.08;100318.97;4434023;32;20037;-69
2021/11/29 02:42:12;;;;;;;9.32;2.30;;;;;;;6.88;47.75;100323.25;4436732;32;20446;-69
2021/11/29 02:44:40;;;;;;;5.10;2.08;;;;;;;7.05;47.55;100331.38;4435952;32;20105;-69
2021/11/29 02:47:06;;;;;;;3.80;1.73;;;;;;;6.69;47.74;100330.31;4434697;32;20048;-68
2021/11/29 02:49:32;;;;;;;6.75;2.22;;;;;;;6.80;47.76;100319.78;4434438;32;20122;-69
2021/11/29 02:52:01;;;;;;;3.95;2.15;;;;;;;6.85;47.51;100330.50;4436228;32;20069;-68
2021/11/29 02:54:31;;;;;;;8.63;2.10;;;;;;;6.98;47.62;100330.69;4436259;32;20475;-68
2021/11/29 02:56:59;;;;;;;6.30;2.35;;;;;;;6.96;47.74;100338.72;4426169;32;20081;-69
2021/11/29 02:59:30;;;;;;;6.78;2.00;;;;;;;6.95;47.78;100339.94;4421533;32;20424;-68
2021/11/29 03:01:58;;;;;;;4.68;2.03;;;;;;;7.11;47.28;100337.25;4426107;32;20478;-68
2021/11/29 03:04:27;;;;;;;8.05;2.25;;;;;;;6.96;47.60;100330.34;4426174;32;20062;-68
2021/11/29 03:06:53;;;;;;;7.62;1.77;;;;;;;6.77;48.11;100329.00;4423930;32;20029;-68
2021/11/29 03:09:20;;;;;;;6.57;1.98;;;;;;;6.63;48.08;100334.03;4419810;32;20061;-68
2021/11/29 03:11:46;;;;;;;9.23;2.40;;;;;;;6.46;47.75;100337.84;4423609;32;20066;-68
2021/11/29 03:14:13;;;;;;;3.17;1.73;;;;;;;6.73;47.77;100338.66;4426419;32;20108;-68
2021/11/29 03:16:39;;;;;;;3.95;1.35;;;;;;;6.63;47.78;100339.63;4424726;32;20069;-68
2021/11/29 03:19:05;;;;;;;6.43;1.90;;;;;;;6.64;47.77;100335.59;4424114;32;20077;-68
2021/11/29 03:21:31;;;;;;;7.80;1.98;;;;;;;6.65;47.69;100335.19;4424360;32;20073;-68
2021/11/29 03:24:01;;;;;;;3.72;1.58;;;;;;;6.59;48.19;100336.09;4426315;32;20074;-68
2021/11/29 03:26:29;;;;;;;7.57;2.03;;;;;;;6.74;48.14;100341.03;4421426;32;20480;-69
2021/11/29 03:28:58;;;;;;;11.70;2.28;;;;;;;6.64;48.31;100336.41;4421095;32;20093;-69
2021/11/29 03:31:26;;;;;;;7.40;2.00;;;;;;;6.59;48.14;100336.09;4426092;32;20065;-69
2021/11/29 03:33:56;;;;;;;4.87;1.90;;;;;;;6.73;47.77;100342.28;4423024;32;20077;-69
2021/11/29 03:36:24;;;;;;;5.72;1.95;;;;;;;6.57;48.07;100336.53;4426467;32;20094;-69
2021/11/29 03:38:49;;;;;;;7.18;2.20;;;;;;;6.61;48.12;100342.84;4422407;32;20415;-69
2021/11/29 03:41:15;;;;;;;6.55;1.75;;;;;;;6.44;47.86;100341.06;4427282;32;20042;-69
2021/11/29 03:43:41;;;;;;;5.20;2.15;;;;;;;6.60;47.78;100348.84;4422339;32;20171;-69
2021/11/29 03:46:07;;;;;;;6.00;1.77;;;;;;;6.45;48.08;100339.88;4423768;32;20598;-69
2021/11/29 03:48:34;;;;;;;7.15;2.17;;;;;;;6.52;48.00;100348.16;4422437;32;20089;-69
2021/11/29 03:51:01;;;;;;;6.62;2.45;;;;;;;6.59;48.00;100356.44;4426331;32;20204;-69
2021/11/29 03:53:26;;;;;;;5.68;2.00;;;;;;;6.54;47.86;100356.13;4423869;32;20072;-69
2021/11/29 03:55:53;;;;;;;7.80;2.17;;;;;;;6.40;47.91;100371.09;4424618;32;20140;-69
2021/11/29 03:58:18;;;;;;;7.75;2.05;;;;;;;6.36;47.77;100361.97;4426553;32;20025;-69
2021/11/29 04:00:45;;;;;;;8.05;2.05;;;;;;;6.43;47.49;100363.84;4421957;32;20125;-69
2021/11/29 04:03:11;;;;;;;6.32;2.05;;;;;;;6.58;47.61;100366.06;4423715;32;20913;-69
2021/11/29 04:05:37;;;;;;;6.87;1.55;;;;;;;6.62;47.35;100366.78;4425037;32;20047;-69
2021/11/29 04:08:04;;;;;;;9.02;2.42;;;;;;;6.63;47.42;100359.19;4423932;32;20057;-69
2021/11/29 04:10:29;;;;;;;8.70;2.15;;;;;;;6.62;47.48;100357.59;4425525;32;20140;-68
2021/11/29 04:13:03;;;;;;;7.00;2.30;;;;;;;6.60;47.54;100354.44;4424495;32;20507;-70
2021/11/29 04:15:29;;;;;;;10.82;2.83;;;;;;;6.40;48.00;100359.91;4422655;32;20081;-69
2021/11/29 04:17:59;;;;;;;9.10;2.58;;;;;;;6.57;47.82;100366.47;4422674;32;20137;-69
2021/11/29 04:20:25;;;;;;;5.82;2.30;;;;;;;6.55;47.66;100366.88;4422453;32;20130;-69
2021/11/29 04:22:51;;;;;;;6.65;2.55;;;;;;;6.46;47.83;100368.59;4426061;32;20041;-69
2021/11/29 04:25:21;;;;;;;9.55;2.62;;;;;;;6.44;47.78;100360.62;4425277;32;20121;-69
2021/11/29 04:27:48;;;;;;;9.15;2.42;;;;;;;6.70;47.52;100373.88;4424600;32;20283;-69
2021/11/29 04:30:19;;;;;;;6.35;2.00;;;;;;;6.53;47.69;100372.09;4421910;32;20026;-69
2021/11/29 04:32:47;;;;;;;8.40;2.28;;;;;;;6.68;47.75;100369.88;4426628;32;20053;-69
2021/11/29 04:35:15;;;;;;;8.13;2.70;;;;;;;6.66;47.73;100370.31;4423376;32;20081;-69
2021/11/29 04:37:41;;;;;;;7.10;1.83;;;;;;;6.64;47.87;100369.16;4422749;32;20480;-69
2021/11/29 04:40:08;;;;;;;9.25;2.55;;;;;;;6.48;48.10;100377.38;4422617;32;20453;-69
2021/11/29 04:42:34;;;;;;;7.97;2.20;;;;;;;6.60;47.96;100380.38;4424847;32;20061;-69
2021/11/29 04:45:00;;;;;;;10.48;2.05;;;;;;;6.47;48.09;100382.16;4424967;32;20090;-69
2021/11/29 04:47:26;;;;;;;9.55;2.30;;;;;;;6.59;47.89;100376.00;4407419;32;20473;-69
2021/11/29 04:49:52;;;;;;;8.68;2.12;;;;;;;6.54;47.90;100376.50;4421472;32;20065;-69
2021/11/29 04:52:18;;;;;;;8.95;1.73;;;;;;;6.58;47.63;100376.44;4426905;32;20429;-69
2021/11/29 04:54:44;;;;;;;3.35;1.50;;;;;;;6.69;47.40;100377.09;4424781;32;20056;-69
2021/11/29 04:57:10;;;;;;;6.60;1.55;;;;;;;6.64;47.45;100386.72;4422384;32;20122;-69
2021/11/29 04:59:35;;;;;;;3.10;1.27;;;;;;;6.53;47.69;100391.66;4424630;32;20367;-69
2021/11/29 05:02:03;;;;;;;9.05;1.95;;;;;;;6.63;47.27;100387.94;4421896;32;20089;-69
2021/11/29 05:04:30;;;;;;;6.90;1.42;;;;;;;6.76;47.16;100388.97;4422340;32;20394;-69
2021/11/29 05:06:55;;;;;;;10.13;1.77;;;;;;;6.87;47.15;100400.00;4423645;32;20480;-69
2021/11/29 05:09:21;;;;;;;3.65;1.33;;;;;;;6.79;47.05;100398.50;4427518;32;20069;-69
2021/11/29 05:11:47;;;;;;;11.12;1.98;;;;;;;6.76;46.95;100397.34;4421778;32;20149;-69
2021/11/29 05:14:13;;;;;;;9.27;1.70;;;;;;;6.77;46.86;100404.53;4425119;32;20465;-69
2021/11/29 05:16:40;;;;;;;6.93;1.85;;;;;;;6.60;47.29;100399.19;4423073;32;20100;-71
2021/11/29 05:19:07;;;;;;;4.12;1.30;;;;;;;6.52;47.59;100406.87;4422046;32;20074;-71
2021/11/29 05:21:33;;;;;;;6.50;2.85;;;;;;;6.60;47.52;100401.97;4424101;32;20030;-69
2021/11/29 05:23:59;;;;;;;9.05;2.28;;;;;;;6.60;47.35;100408.34;4425211;32;20025;-69
2021/11/29 05:26:26;;;;;;;6.32;1.40;;;;;;;6.56;47.42;100401.25;4420718;32;20096;-69
2021/11/29 05:28:54;;;;;;;3.83;1.37;;;;;;;6.73;47.48;100411.38;4425783;32;20373;-69
2021/11/29 05:31:21;;;;;;;9.40;2.65;;;;;;;6.86;47.17;100409.59;4425348;32;20072;-69
2021/11/29 05:33:47;;;;;;;4.93;1.50;;;;;;;6.75;47.39;100406.94;4425666;32;20093;-70
2021/11/29 05:36:13;;;;;;;5.30;1.87;;;;;;;6.67;47.38;100407.47;4420644;32;20095;-69
2021/11/29 05:38:39;;;;;;;3.30;1.40;;;;;;;6.88;47.05;100401.56;4424258;32;20077;-69
2021/11/29 05:41:07;;;;;;;5.97;1.75;;;;;;;6.75;47.11;100404.13;4412847;32;20099;-69
2021/11/29 05:43:32;;;;;;;4.53;1.70;;;;;;;6.89;46.98;100409.53;4425633;32;20082;-69
2021/11/29 05:46:00;;;;;;;3.85;1.52;;;;;;;6.94;46.68;100422.25;4420165;32;20038;-69
2021/11/29 05:48:29;;;;;;;5.40;2.10;;;;;;;7.03;46.64;100419.75;4422446;32;20104;-70
2021/11/29 05:50:55;;;;;;;7.28;1.92;;;;;;;7.04;46.93;100415.72;4423283;32;20033;-70
2021/11/29 05:53:21;;;;;;;6.15;2.20;;;;;;;6.92;47.33;100419.91;4423677;32;20033;-69
2021/11/29 05:55:46;;;;;;;7.90;2.30;;;;;;;6.92;47.20;100411.50;4423495;32;20157;-69
2021/11/29 05:58:13;;;;;;;3.97;2.80;;;;;;;7.01;47.11;100422.16;4425328;32;20046;-69
2021/11/29 06:00:39;;;;;;;8.75;2.58;;;;;;;7.01;46.85;100425.75;4423350;32;20029;-69
2021/11/29 06:03:05;;;;;;;4.93;2.37;;;;;;;7.07;46.84;100426.87;4424009;32;20104;-69
2021/11/29 06:05:31;;;;;;;6.78;2.20;;;;;;;7.00;46.76;100417.78;4422316;32;20034;-69
2021/11/29 06:07:57;;;;;;;6.72;1.90;;;;;;;7.15;46.82;100424.75;4422202;32;20636;-69
2021/11/29 06:10:22;;;;;;;5.80;1.77;;;;;;;7.06;46.75;100424.50;4415162;32;20046;-69
2021/11/29 06:12:49;;;;;;;8.73;2.40;;;;;;;7.05;46.79;100420.09;4423185;32;20096;-69
2021/11/29 06:15:16;;;;;;;8.82;2.22;;;;;;;7.17;46.59;100427.91;4420290;32;20117;-69
2021/11/29 06:17:43;;;;;;;6.43;1.92;;;;;;;7.21;46.59;100434.25;4422476;32;20045;-70
2021/11/29 06:20:10;;;;;;;5.97;1.98;;;;;;;7.00;46.82;100428.97;4420708;32;20034;-70
2021/11/29 06:22:36;;;;;;;9.05;2.08;;;;;;;6.99;46.86;100433.78;4426597;32;20053;-70
2021/11/29 06:25:02;;;;;;;4.35;1.70;;;;;;;6.96;47.00;100431.03;4425236;32;20447;-70
2021/11/29 06:27:28;;;;;;;7.93;2.47;;;;;;;7.00;46.96;100434.56;4422160;32;20092;-70
2021/11/29 06:29:54;;;;;;;5.82;2.10;;;;;;;6.98;47.06;100428.59;4422415;32;20081;-70
2021/11/29 06:32:19;;;;;;;9.40;2.25;;;;;;;6.93;46.90;100434.69;4419787;32;20068;-70
2021/11/29 06:34:45;;;;;;;7.87;2.20;;;;;;;6.91;47.13;100434.28;4423614;32;20076;-69
2021/11/29 06:37:11;;;;;;;10.75;3.28;;;;;;;7.00;47.17;100423.37;4426170;32;20413;-70
2021/11/29 06:39:38;;;;;;;7.85;2.62;;;;;;;7.03;47.12;100440.09;4424580;32;20096;-70
2021/11/29 06:42:06;;;;;;;10.25;2.20;;;;;;;6.94;47.36;100434.25;4427391;32;20103;-70
2021/11/29 06:44:32;;;;;;;4.80;2.00;;;;;;;6.90;47.20;100435.53;4424911;32;20113;-70
2021/11/29 06:46:58;;;;;;;5.60;1.95;;;;;;;6.72;47.62;100440.56;4423159;32;20149;-70
2021/11/29 06:49:23;;;;;;;6.50;1.90;;;;;;;6.70;47.52;100437.37;4423804;32;20219;-70
2021/11/29 06:51:50;;;;;;;4.22;2.05;;;;;;;6.79;47.38;100446.84;4427140;32;20059;-70
2021/11/29 06:54:16;;;;;;;5.80;1.73;;;;;;;6.79;47.54;100441.25;4424172;32;20077;-70
2021/11/29 06:56:42;;;;;;;7.00;2.10;;;;;;;6.58;47.79;100438.72;4425502;32;20544;-70
2021/11/29 06:59:08;;;;;;;7.22;2.40;;;;;;;6.65;47.69;100433.03;4425409;32;20037;-70
2021/11/29 07:01:34;;;;;;;6.20;2.17;;;;;;;6.73;47.69;100434.53;4423611;32;20046;-70
2021/11/29 07:04:01;;;;;;;11.55;2.62;;;;;;;6.81;47.50;100440.84;4425305;32;20089;-70
2021/11/29 07:06:26;;;;;;;11.45;2.72;;;;;;;6.83;47.51;100441.19;4425921;32;20077;-70
2021/11/29 07:08:52;;;;;;;5.75;2.60;;;;;;;6.81;47.59;100441.59;4426802;32;20140;-70
2021/11/29 07:11:19;;;;;;;6.32;3.37;;;;;;;6.77;47.82;100451.25;4427025;32;20136;-70
2021/11/29 07:13:44;;;;;;;5.97;2.92;;;;;;;6.66;47.72;100445.03;4424218;32;20081;-70
2021/11/29 07:16:10;;;;;;;9.35;3.08;;;;;;;6.70;47.69;100442.97;4425815;32;20511;-70
2021/11/29 07:18:36;;;;;;;7.25;3.58;;;;;;;6.69;47.50;100452.59;4422080;32;20105;-70
2021/11/29 07:21:02;;;;;;;12.70;4.50;;;;;;;6.58;47.63;100449.91;4421800;32;20041;-70
2021/11/29 07:23:27;;;;;;;11.23;3.33;;;;;;;6.68;47.93;100459.38;4423147;32;20352;-70
2021/11/29 07:25:53;;;;;;;11.20;3.50;;;;;;;6.78;47.86;100466.84;4426401;32;20057;-70
2021/11/29 07:28:19;;;;;;;10.27;3.90;;;;;;;6.90;47.69;100469.84;4425513;32;20105;-70
2021/11/29 07:30:45;;;;;;;12.25;4.43;;;;;;;7.09;47.67;100471.22;4423497;32;20133;-70
2021/11/29 07:33:10;;;;;;;8.98;3.47;;;;;;;7.07;47.54;100471.63;4416857;32;20100;-70
2021/11/29 07:35:36;;;;;;;8.18;3.60;;;;;;;7.11;47.31;100468.75;4418031;32;20157;-70
2021/11/29 07:38:03;;;;;;;13.95;4.55;;;;;;;7.20;47.16;100463.44;4415953;32;20100;-70
2021/11/29 07:40:31;;;;;;;14.38;4.22;;;;;;;7.47;46.72;100473.44;4415943;32;20096;-70
2021/11/29 07:42:58;;;;;;;18.75;5.60;;;;;;;7.52;46.58;100480.56;4419143;32;20150;-70
2021/11/29 07:45:24;;;;;;;13.23;5.35;;;;;;;7.47;47.13;100478.22;4411890;32;20110;-71
2021/11/29 07:47:50;;;;;;;13.40;4.82;;;;;;;7.37;47.20;100474.37;4409839;32;20419;-71
2021/11/29 07:50:17;;;;;;;15.85;5.05;;;;;;;7.37;46.99;100488.34;4414452;32;20092;-71
2021/11/29 07:52:46;;;;;;;19.42;4.80;;;;;;;7.47;46.68;100483.81;4418275;32;20454;-70
2021/11/29 07:55:14;;;;;;;15.45;5.37;;;;;;;7.61;46.72;100489.22;4418659;32;20099;-70
2021/11/29 07:57:40;;;;;;;14.23;5.37;;;;;;;7.61;46.62;100484.37;4411494;32;20519;-70
2021/11/29 08:00:10;;;;;;;16.35;6.15;;;;;;;7.59;46.69;100494.44;4410350;32;20125;-70
2021/11/29 08:02:36;;;;;;;15.50;5.22;;;;;;;7.78;46.64;100488.13;4412644;32;20050;-71
2021/11/29 08:05:02;;;;;;;9.32;4.35;;;;;;;7.78;46.49;100488.13;4408424;32;20108;-70
2021/11/29 08:07:29;;;;;;;9.98;4.72;;;;;;;7.86;46.31;100495.97;4412015;32;20470;-70
2021/11/29 08:09:54;;;;;;;12.20;5.95;;;;;;;8.09;45.75;100498.78;4414844;32;20085;-70
2021/11/29 08:12:20;;;;;;;14.50;6.32;;;;;;;8.15;45.85;100488.66;4414139;32;20174;-70
2021/11/29 08:14:47;;;;;;;15.25;6.53;;;;;;;8.27;45.67;100498.47;4411791;32;20105;-70
2021/11/29 08:17:13;;;;;;;11.73;4.72;;;;;;;8.27;45.57;100492.88;4403612;32;20231;-70
2021/11/29 08:19:39;;;;;;;16.98;5.07;;;;;;;8.41;45.42;100495.41;4405049;32;20085;-71
2021/11/29 08:22:04;;;;;;;15.35;5.80;;;;;;;8.33;45.49;100496.75;4400099;32;20570;-69
2021/11/29 08:24:30;;;;;;;13.73;5.22;;;;;;;8.50;45.26;100497.66;4401946;32;20482;-70
2021/11/29 08:26:55;;;;;;;18.12;5.70;;;;;;;8.55;44.96;100492.31;4400300;32;20049;-70
2021/11/29 08:29:21;;;;;;;10.65;5.28;;;;;;;8.54;45.05;100487.94;4399698;32;20058;-70
2021/11/29 08:31:47;;;;;;;18.95;5.87;;;;;;;8.70;44.96;100490.03;4407277;32;20415;-71
2021/11/29 08:34:14;;;;;;;24.55;7.40;;;;;;;8.64;45.00;100498.16;4408514;32;20057;-70
2021/11/29 08:36:40;;;;;;;10.27;4.90;;;;;;;8.61;45.09;100496.22;4405313;32;20078;-69
2021/11/29 08:39:06;;;;;;;15.60;6.00;;;;;;;8.69;45.18;100497.66;4402955;32;20081;-70
2021/11/29 08:41:33;;;;;;;12.88;4.50;;;;;;;8.75;44.47;100501.56;4402175;32;20146;-70
2021/11/29 08:44:00;;;;;;;8.13;3.85;;;;;;;8.90;44.42;100504.84;4404595;32;20089;-69
2021/11/29 08:46:26;;;;;;;13.00;5.70;;;;;;;8.86;44.48;100504.91;4404627;32;20089;-70
2021/11/29 08:48:52;;;;;;;11.98;4.72;;;;;;;8.85;44.66;100503.34;4404821;32;20113;-70
2021/11/29 08:51:18;;;;;;;11.10;4.40;;;;;;;8.93;44.26;100513.16;4405055;32;20077;-70
2021/11/29 08:53:45;;;;;;;11.95;4.60;;;;;;;9.21;44.11;100512.56;4404302;32;20588;-69
2021/11/29 08:56:12;;;;;;;16.98;6.50;;;;;;;9.27;44.10;100515.66;4403567;32;20072;-69
2021/11/29 08:58:37;;;;;;;13.20;6.10;;;;;;;9.28;43.53;100517.22;4401561;32;20073;-70
2021/11/29 09:01:04;;;;;;;17.20;5.93;;;;;;;9.06;44.06;100516.13;4398063;32;20439;-71
2021/11/29 09:03:31;;;;;;;14.90;5.50;;;;;;;9.42;43.75;100522.53;4404918;32;20077;-70
2021/11/29 09:05:58;;;;;;;18.87;4.87;;;;;;;9.39;43.21;100521.38;4404694;32;20157;-71
2021/11/29 09:08:25;;;;;;;12.50;4.93;;;;;;;9.46;43.90;100520.44;4403411;32;20109;-71
2021/11/29 09:10:51;;;;;;;16.08;5.55;;;;;;;9.74;43.17;100536.63;4407198;32;21016;-71
2021/11/29 09:13:18;;;;;;;16.42;7.35;;;;;;;9.92;43.33;100537.00;4409399;32;21192;-73
2021/11/29 09:15:45;;;;;;;17.58;5.28;;;;;;;9.94;43.60;100538.13;4407160;32;21351;-71
2021/11/29 09:18:12;;;;;;;11.48;5.62;;;;;;;10.02;43.37;100525.50;4403464;32;20094;-71
2021/11/29 09:20:40;;;;;;;13.27;5.32;;;;;;;10.55;42.50;100526.16;4406815;32;20183;-71
2021/11/29 09:23:08;;;;;;;15.95;6.65;;;;;;;10.66;42.05;100533.06;4402712;32;20136;-71
2021/11/29 09:25:41;;;;;;;14.87;6.15;;;;;;;10.90;41.04;100539.22;4406435;32;20168;-71
2021/11/29 09:28:11;;;;;;;21.17;10.55;;;;;;;11.20;41.21;100538.75;4405003;32;20466;-72
2021/11/29 09:30:37;;;;;;;17.45;7.05;;;;;;;11.64;40.83;100529.34;4399328;32;20086;-71
2021/11/29 09:33:04;;;;;;;16.87;6.70;;;;;;;11.54;40.25;100542.50;4407054;32;20585;-72
2021/11/29 09:35:30;;;;;;;16.98;6.37;;;;;;;11.56;40.23;100553.31;4405005;32;20427;-71
2021/11/29 09:37:57;;;;;;;18.60;6.90;;;;;;;11.95;39.79;100556.53;4402747;32;20546;-72
2021/11/29 09:40:27;;;;;;;18.87;7.78;;;;;;;12.09;40.33;100549.63;4404597;32;20072;-71
2021/11/29 09:42:53;;;;;;;18.33;5.75;;;;;;;12.20;39.21;100549.25;4406134;32;20074;-71
2021/11/29 09:45:22;;;;;;;13.93;6.15;;;;;;;12.26;39.51;100542.59;4407531;32;20057;-71
2021/11/29 09:47:48;;;;;;;12.07;4.97;;;;;;;12.44;39.31;100544.78;4402178;32;20084;-71
2021/11/29 09:50:15;;;;;;;17.15;5.80;;;;;;;12.30;39.20;100542.47;4401268;32;20104;-71
2021/11/29 09:52:41;;;;;;;12.50;5.35;;;;;;;12.36;39.00;100549.88;4406818;32;20072;-71
2021/11/29 09:55:13;;;;;;;14.68;6.87;;;;;;;12.22;39.90;100538.31;4402539;32;20678;-71
2021/11/29 09:57:41;;;;;;;21.80;8.57;;;;;;;12.65;40.13;100539.19;4405527;32;20111;-71
2021/11/29 10:00:12;;;;;;;18.87;5.45;;;;;;;12.75;39.95;100534.41;4405268;32;20045;-71
2021/11/29 10:02:38;;;;;;;16.67;6.50;;;;;;;12.96;39.40;100542.09;4403581;32;20116;-71
2021/11/29 10:05:05;;;;;;;15.18;7.07;;;;;;;12.86;39.29;100541.22;4402523;32;20144;-70
2021/11/29 10:13:03;;;;;;;13.77;5.97;;;;;;;13.90;38.07;100538.41;3969911;32;15022167;-70
2021/11/29 10:15:33;;;;;;;14.55;6.72;;;;;;;13.90;38.07;100538.41;4422122;32;20013;-70
2021/11/29 10:26:04;;;;;;;42.83;15.15;;;;;;;13.97;38.70;100546.59;3964244;32;15022318;-71
2021/11/29 10:28:35;;;;;;;24.15;9.48;;;;;;;13.97;38.70;100546.59;4411705;32;20125;-71
2021/11/29 10:34:08;;;;;;;26.73;6.43;;;;;;;14.51;37.39;100548.03;3984449;32;15033570;-71
2021/11/29 10:39:15;;;;;;;28.65;10.95;;;;;;;14.66;37.87;100549.75;3955674;32;15021566;-71
2021/11/29 10:41:43;;;;;;;31.15;10.98;;;;;;;14.66;37.87;100549.75;4405594;32;20429;-71
2021/11/29 10:44:13;;;;;;;26.48;9.95;;;;;;;14.37;38.36;100540.94;4408406;32;20102;-71
2021/11/29 10:46:43;;;;;;;26.40;8.65;;;;;;;14.57;37.78;100534.81;4391529;32;21286;-70
2021/11/29 10:49:13;;;;;;;18.70;6.87;;;;;;;14.92;37.71;100542.53;4404859;32;20089;-70
2021/11/29 10:51:41;;;;;;;21.80;7.28;;;;;;;15.01;37.39;100534.03;4406807;32;20507;-70
2021/11/29 10:54:11;;;;;;;14.32;7.22;;;;;;;15.23;37.12;100533.84;4407278;32;20078;-70
2021/11/29 10:56:39;;;;;;;19.17;6.57;;;;;;;15.35;36.94;100532.88;4402465;32;20117;-70
2021/11/29 10:59:11;;;;;;;7.95;3.25;;;;;;;15.43;36.66;100526.41;4403521;32;20038;-70
2021/11/29 11:04:26;;;;;;;11.23;5.05;;;;;;;16.09;35.06;100537.81;3967353;32;15022299;-70
2021/11/29 11:06:56;;;;;;;13.88;4.12;;;;;;;16.09;35.06;100537.81;4429621;32;20112;-70
2021/11/29 11:09:25;;;;;;;14.80;5.22;;;;;;;15.44;35.20;100518.69;4431496;32;20131;-70
2021/11/29 11:11:55;;;;;;;13.77;5.72;;;;;;;15.73;34.91;100521.72;4430531;32;20072;-70
2021/11/29 11:14:24;;;;;;;13.98;5.93;;;;;;;15.81;34.72;100528.66;4429786;32;20054;-70
2021/11/29 11:19:49;;;;;;;15.15;6.62;;;;;;;16.10;35.23;100522.38;3972726;32;15021896;-70
2021/11/29 11:22:23;;;;;;;12.90;5.35;;;;;;;16.10;35.23;100522.38;4427651;32;20092;-70
2021/11/29 11:24:54;;;;;;;12.17;3.60;;;;;;;15.50;35.08;100528.13;4429803;32;20049;-70
2021/11/29 11:27:20;;;;;;;9.32;3.72;;;;;;;15.70;35.00;100523.50;4428050;32;20534;-70
2021/11/29 11:35:07;;;;;;;12.20;6.12;;;;;;;16.22;34.22;100524.16;3963439;32;15055002;-71
2021/11/29 11:37:39;;;;;;;28.02;9.27;;;;;;;16.22;34.22;100524.16;4416577;32;20447;-71
2021/11/29 11:40:09;;;;;;;71.50;20.67;;;;;;;15.94;34.64;100526.38;4415687;32;20157;-71
2021/11/29 11:42:36;;;;;;;29.35;9.85;;;;;;;15.93;35.12;100521.97;4417852;32;20189;-71
2021/11/29 11:45:07;;;;;;;23.38;7.30;;;;;;;15.95;34.99;100514.53;4418223;32;20166;-71
2021/11/29 11:47:33;;;;;;;6.55;4.03;;;;;;;16.42;34.59;100505.28;4416192;32;20073;-71
2021/11/29 11:49:59;;;;;;;7.75;3.78;;;;;;;16.27;33.92;100515.78;4416498;32;20057;-71
2021/11/29 11:52:25;;;;;;;7.40;3.10;;;;;;;16.86;33.33;100511.09;4420727;32;20096;-71
2021/11/29 11:54:56;;;;;;;6.72;2.10;;;;;;;16.62;32.28;100505.44;4421217;32;20534;-71
2021/11/29 11:57:25;;;;;;;4.75;2.42;;;;;;;16.75;32.40;100503.12;4417434;32;20112;-71